Council Grove, KS (66846)

2:51 PM CDT on August 27, 2014 (GMT -0500)
Timmerman School Area | Change Station
CLOSE
Current Station
Personal Weather Station
Location: Emporia, KS
Elevation: 1214 ft
Nearby Weather Stations

Elev 1214 ft 38.43 °N, 96.22 °W | Updated 13 minutes ago

Partly Cloudy
Partly Cloudy
90.1 °F
Feels Like 93 °F
N
3.6
Wind Variable Wind from ESE
Gusts 4.9 mph

Today
High -- | Low -- °F
--% Chance of Precip.
Yesterday
High -- | Low -- °F
Precip. -- in
6:50 AM 8:03 PM
Waxing Crescent, 5% visible
Pressure 30.06 in
Visibility 10.0 miles
Clouds Clear
Heat Index 93 °F
Dew Point 67 °F
Humidity 46%
Rainfall 0.00 in
Snow Depth Not available.
UV 10 out of 12
Pollen 9.10 out of 12
Air Quality Not available.
Flu Activity Not available.
METAR KEMP 271753Z AUTO VRB04KT 10SM CLR 32/19 A3010 RMK AO2 SLP179 T03220189 10333 20206 58006

More Conditions Fewer Conditions

Pressure 30.06 in
Visibility 10.0 miles
Clouds Clear
Heat Index 93 °F
Dew Point 67 °F
Humidity 46%
Rainfall 0.00 in
Snow Depth Not available.
UV 10 out of 12
Pollen 9.10 out of 12
Air Quality Not available.
Flu Activity Not available.
METAR KEMP 271753Z AUTO VRB04KT 10SM CLR 32/19 A3010 RMK AO2 SLP179 T03220189 10333 20206 58006

More Conditions Fewer Conditions

10-Day Weather Forecast

Almanac

Astronomy

Aug. 27, 2014 Rise Set
Actual Time 6:50 AM CDT 8:03 PM CDT
Civil Twilight 6:23 AM CDT 8:30 PM CDT
Nautical Twilight 5:50 AM CDT 9:03 PM CDT
Astronomical Twilight 5:15 AM CDT 9:37 PM CDT
Moon 8:46 AM CDT 8:58 PM CDT
Length of Visible Light 14h 07m
Length of Day
13h 12m
Tomorrow will be 2m 23s shorter.
Waxing Crescent, 5% of the Moon is Illuminated
Today
Waxing Crescent
Sep 2
First Quarter
Sep 8
Full
Sep 15
Last Quarter
Sep 24
New

Today's Extremes

State Highs State Lows

Community

WunderPhotos

Upload Photos

1,747,771 photos uploaded!

Nearby

Snow Depth

Station Depth Elevation
No new snow has been reported.

Earthquake Activity

City Distance Mag. Time & Date
Medford, Oklahoma 145 miles 2.6 2:59 AM CDT
2014-08-26
, 125 miles 3.0 7:00 PM CDT
2014-08-24
Minimum magnitude displayed is 2.5.

Coastal Water Temperatures

Place Temperature
No Stations Reporting

Nearby Weather Stations